« Back
NWS Peachtree City, Ga » Text Product » MCN Terminal Aerodrome Forecast


Printer-friendly Version
Current Version              Previous Versions:   1  2  3  4  5  6  7  8  9  

Terminal Aerodrome Forecast

567
FTUS42 KFFC 011624 AAB
TAFMCN
TAF AMD
KMCN 011624Z 0116/0212 08010KT 3SM BR OVC005
      TEMPO 0116/0119 1SM -DZ BR OVC003
     FM011900 08005KT 6SM BR BKN008
     FM020200 00000KT 2SM -DZ OVC004=



USA.gov is the U.S. government's official web portal to all federal, state and local government web resources and services.